createdAt,value
2022-08-18T02:33:51.830Z,12.07
2022-08-18T02:36:20.778Z,13.50
2022-08-18T02:38:54.814Z,13.63
2022-08-18T02:41:29.814Z,13.63
2022-08-18T02:43:58.435Z,14.53
2022-08-18T02:46:29.275Z,12.93
2022-08-18T02:48:57.438Z,15.13
2022-08-18T02:51:25.873Z,15.82
2022-08-18T02:53:53.857Z,15.77
2022-08-18T02:56:35.685Z,16.55
2022-08-18T02:59:11.720Z,15.13
2022-08-18T03:01:41.093Z,16.55
2022-08-18T03:04:09.529Z,16.05
2022-08-18T03:06:39.429Z,16.92
2022-08-18T03:09:08.391Z,17.55
2022-08-18T03:11:36.507Z,15.10
2022-08-18T03:14:05.295Z,15.05
2022-08-18T03:16:33.456Z,17.30
2022-08-18T03:19:01.865Z,15.63
2022-08-18T03:21:30.981Z,16.27
2022-08-18T03:24:00.763Z,15.05
2022-08-18T03:28:58.354Z,15.35
2022-08-18T03:31:28.117Z,15.82
2022-08-18T03:33:57.202Z,17.98
2022-08-18T03:36:31.861Z,15.68
2022-08-18T03:38:59.394Z,17.58
2022-08-18T03:41:43.665Z,17.95
2022-08-18T03:44:15.562Z,19.67
2022-08-18T03:46:44.390Z,20.27
2022-08-18T03:49:12.143Z,21.50
2022-08-18T03:51:43.502Z,23.63
2022-08-18T03:54:13.138Z,24.10
2022-08-18T03:56:41.745Z,22.52
2022-08-18T03:59:12.525Z,22.15
2022-08-18T04:01:41.422Z,21.35
2022-08-18T04:04:15.022Z,21.05
2022-08-18T04:06:58.457Z,21.75
2022-08-18T04:09:28.829Z,22.38
2022-08-18T04:11:56.878Z,22.08
2022-08-18T04:14:29.939Z,23.15
2022-08-18T04:16:57.819Z,21.90
2022-08-18T04:19:27.605Z,23.90
2022-08-18T04:21:56.867Z,22.80
2022-08-18T04:24:25.830Z,22.65
2022-08-18T04:26:52.854Z,22.05
2022-08-18T04:29:23.947Z,20.48
2022-08-18T04:31:52.015Z,20.10
2022-08-18T04:34:20.745Z,22.80
2022-08-18T04:36:47.819Z,22.27
2022-08-18T04:39:15.091Z,22.13
2022-08-18T04:41:43.841Z,23.10
2022-08-18T04:44:12.537Z,23.63
2022-08-18T04:46:41.969Z,23.77
2022-08-18T04:49:10.556Z,24.10
2022-08-18T04:52:37.265Z,24.38
2022-08-18T04:54:37.913Z,25.58
2022-08-18T04:57:13.779Z,25.13
2022-08-18T04:59:45.972Z,24.10
2022-08-18T05:02:15.450Z,26.58
2022-08-18T05:04:47.051Z,24.98
2022-08-18T05:07:16.421Z,27.05
2022-08-18T05:09:43.486Z,26.75
2022-08-18T05:12:13.465Z,25.52
2022-08-18T05:14:42.060Z,28.70
2022-08-18T05:17:08.950Z,26.33
2022-08-18T05:19:35.858Z,27.55
2022-08-18T05:22:09.024Z,27.55
2022-08-18T05:24:37.051Z,29.40
2022-08-18T05:27:07.366Z,28.45
2022-08-18T05:29:36.723Z,32.00
2022-08-18T05:32:09.414Z,29.30
2022-08-18T05:34:36.556Z,30.65
2022-08-18T05:37:27.165Z,30.35
2022-08-18T05:40:10.382Z,29.65
2022-08-18T05:42:40.519Z,29.95
2022-08-18T05:45:12.237Z,30.92
2022-08-18T05:47:39.214Z,29.65
2022-08-18T05:50:10.890Z,28.23
2022-08-18T05:52:48.946Z,30.15
2022-08-18T05:55:47.941Z,31.17
2022-08-18T05:58:23.723Z,29.48
2022-08-18T06:01:08.986Z,29.65
2022-08-18T06:03:45.300Z,29.05
2022-08-18T06:06:19.742Z,28.15
2022-08-18T06:09:17.147Z,29.05
2022-08-18T06:11:44.402Z,32.72
2022-08-18T06:14:13.403Z,29.63
2022-08-18T06:16:49.247Z,29.95
2022-08-18T06:19:45.261Z,29.73
2022-08-18T06:22:52.633Z,28.30
2022-08-18T06:25:38.172Z,29.52
2022-08-18T06:28:09.187Z,30.52
2022-08-18T06:30:42.155Z,28.25
2022-08-18T06:33:33.511Z,31.52
2022-08-18T06:36:12.639Z,30.08
2022-08-18T06:38:58.738Z,28.08
2022-08-18T06:41:43.798Z,28.35
2022-08-18T06:44:19.961Z,31.60
2022-08-18T06:47:04.709Z,25.48
2022-08-18T06:49:39.820Z,27.98
2022-08-18T06:52:31.384Z,30.27
2022-08-18T06:55:02.325Z,30.15
2022-08-18T06:57:38.428Z,28.67
2022-08-18T07:00:32.654Z,26.50
2022-08-18T07:03:06.787Z,25.70
2022-08-18T07:05:35.905Z,26.25
2022-08-18T07:08:23.202Z,26.55
2022-08-18T07:10:52.699Z,25.80
2022-08-18T07:13:26.787Z,25.10
2022-08-18T07:15:56.209Z,25.67
2022-08-18T07:18:28.771Z,25.20
2022-08-18T07:21:01.375Z,24.42
2022-08-18T07:23:30.148Z,24.73
2022-08-18T07:26:12.206Z,23.90
2022-08-18T07:28:45.607Z,24.38
2022-08-18T07:31:20.613Z,25.42
2022-08-18T07:34:02.919Z,25.58
2022-08-18T07:36:35.781Z,25.33
2022-08-18T07:39:27.768Z,25.33
2022-08-18T07:42:53.865Z,26.58
2022-08-18T07:45:14.888Z,25.45
2022-08-18T07:47:52.389Z,27.77
2022-08-18T07:50:36.298Z,25.73
2022-08-18T07:53:24.574Z,28.27
2022-08-18T07:56:00.334Z,28.85
2022-08-18T07:58:50.751Z,26.38
2022-08-18T08:01:37.478Z,27.70
2022-08-18T08:04:26.506Z,26.20
2022-08-18T08:07:26.240Z,28.17
2022-08-18T08:10:13.449Z,27.30
2022-08-18T08:12:51.198Z,25.98
2022-08-18T08:15:47.146Z,25.15
2022-08-18T08:18:52.442Z,25.75
2022-08-18T08:21:22.589Z,23.23
2022-08-18T08:24:16.870Z,24.75
2022-08-18T08:27:01.999Z,23.73
2022-08-18T08:29:57.941Z,23.95
2022-08-18T08:32:50.082Z,24.45
2022-08-18T08:35:49.035Z,24.17
2022-08-18T08:38:42.795Z,24.25
2022-08-18T08:41:28.290Z,25.77
2022-08-18T08:44:16.222Z,25.83
2022-08-18T08:46:49.674Z,25.23
2022-08-18T08:49:29.592Z,23.13
2022-08-18T08:52:05.385Z,24.53
2022-08-18T08:54:39.351Z,22.45
2022-08-18T08:57:06.843Z,24.00
2022-08-18T08:59:38.971Z,23.27
2022-08-18T09:02:47.335Z,23.50
2022-08-18T09:05:18.676Z,22.08
2022-08-18T09:08:08.914Z,22.77
2022-08-18T09:10:41.273Z,22.13
2022-08-18T09:14:05.384Z,25.08
2022-08-18T09:16:43.784Z,22.42
2022-08-18T09:19:37.620Z,24.15
2022-08-18T09:22:11.968Z,23.63
2022-08-18T09:24:47.994Z,24.98
2022-08-18T09:27:23.506Z,25.20
2022-08-18T09:29:57.431Z,26.42
2022-08-18T09:32:25.940Z,27.85
2022-08-18T09:35:07.762Z,29.27
2022-08-18T09:38:36.864Z,26.35
2022-08-18T09:41:32.842Z,25.90
2022-08-18T09:44:12.178Z,26.38
2022-08-18T09:46:59.918Z,25.85
2022-08-18T09:49:27.035Z,27.33
2022-08-18T09:52:24.281Z,28.15
2022-08-18T09:55:32.802Z,26.77
2022-08-18T09:58:19.980Z,25.42
2022-08-18T10:01:21.662Z,26.48
2022-08-18T10:04:14.735Z,26.13
2022-08-18T10:06:48.819Z,25.67
2022-08-18T10:09:36.629Z,25.80
2022-08-18T10:12:16.338Z,25.02
2022-08-18T10:18:18.855Z,25.15
2022-08-18T10:21:17.447Z,26.40
2022-08-18T10:24:14.559Z,28.20
2022-08-18T10:26:54.633Z,28.65
2022-08-18T10:29:28.483Z,29.50
2022-08-18T10:31:55.599Z,27.98
2022-08-18T10:34:56.815Z,30.80
2022-08-18T10:37:39.489Z,29.05
2022-08-18T10:40:09.446Z,30.23
2022-08-18T10:42:45.041Z,31.20
2022-08-18T10:45:34.155Z,32.78
2022-08-18T10:48:24.290Z,30.77
2022-08-18T10:51:08.696Z,31.55
2022-08-18T10:53:52.261Z,34.05
2022-08-18T10:56:34.527Z,32.97
2022-08-18T10:59:16.124Z,33.20
2022-08-18T11:02:08.221Z,34.17
2022-08-18T11:04:47.398Z,34.47
2022-08-18T11:07:30.978Z,32.90
2022-08-18T11:10:29.184Z,32.50
2022-08-18T11:13:03.135Z,35.42
2022-08-18T11:16:30.951Z,34.90
2022-08-18T11:19:10.989Z,33.60
2022-08-18T11:21:42.326Z,35.80
2022-08-18T11:24:13.514Z,37.05
2022-08-18T11:26:53.227Z,36.25
2022-08-18T11:29:35.756Z,37.78
2022-08-18T11:32:13.520Z,40.17
2022-08-18T11:34:51.945Z,37.75
2022-08-18T11:37:27.442Z,36.78
2022-08-18T11:39:58.114Z,35.88
2022-08-18T11:45:23.502Z,33.30
2022-08-18T11:48:21.061Z,34.63
2022-08-18T11:50:55.002Z,35.97
2022-08-18T11:53:53.843Z,34.33
2022-08-18T11:56:30.833Z,34.20
2022-08-18T11:59:52.292Z,32.78
2022-08-18T12:02:18.092Z,33.33
2022-08-18T12:04:50.438Z,33.08
2022-08-18T12:07:57.303Z,35.88
2022-08-18T12:10:28.636Z,33.78
2022-08-18T12:12:59.989Z,33.80
2022-08-18T12:15:29.578Z,35.30
2022-08-18T12:18:11.399Z,33.50
2022-08-18T12:20:53.325Z,32.17
2022-08-18T12:23:20.117Z,33.38
2022-08-18T12:25:48.150Z,33.83
2022-08-18T12:28:19.675Z,35.38
2022-08-18T12:33:25.458Z,32.63
2022-08-18T12:36:02.074Z,34.92
2022-08-18T12:38:33.278Z,34.75
2022-08-18T12:41:05.339Z,35.22
2022-08-18T12:43:32.600Z,35.17
2022-08-18T12:46:01.132Z,36.55
2022-08-18T12:48:30.320Z,34.88
2022-08-18T12:50:58.606Z,35.25
2022-08-18T12:56:22.552Z,33.00
2022-08-18T12:58:49.984Z,34.80
2022-08-18T13:01:18.920Z,36.42
2022-08-18T13:03:52.776Z,34.83
2022-08-18T13:06:37.505Z,35.20
2022-08-18T13:09:16.327Z,33.55
2022-08-18T13:11:54.939Z,34.08
2022-08-18T13:14:21.720Z,35.83
2022-08-18T13:16:54.088Z,28.83
2022-08-18T13:19:21.956Z,27.38
2022-08-18T13:21:49.619Z,27.45
2022-08-18T13:24:16.693Z,25.42
2022-08-18T13:26:49.602Z,28.95
2022-08-18T13:29:19.297Z,27.40
2022-08-18T13:31:50.441Z,26.30
2022-08-18T13:34:25.279Z,26.95
2022-08-18T13:36:52.464Z,27.50
2022-08-18T13:39:25.230Z,25.95
2022-08-18T13:42:26.839Z,27.60
2022-08-18T13:44:49.851Z,26.92
2022-08-18T13:47:19.849Z,25.73
2022-08-18T13:49:58.242Z,27.83
2022-08-18T13:52:34.880Z,26.30
2022-08-18T13:55:17.483Z,26.15
2022-08-18T13:57:49.853Z,28.58
2022-08-18T14:00:27.752Z,26.80
2022-08-18T14:02:58.859Z,27.00
2022-08-18T14:05:36.852Z,28.15
2022-08-18T14:08:19.043Z,27.98
2022-08-18T14:10:53.704Z,28.38
2022-08-18T14:13:24.673Z,28.95
2022-08-18T14:15:54.950Z,30.60
2022-08-18T14:18:29.005Z,29.98
2022-08-18T14:21:16.901Z,30.30
2022-08-18T14:24:10.600Z,30.33
2022-08-18T14:29:45.676Z,28.63
2022-08-18T14:32:07.077Z,30.25
2022-08-18T14:34:33.915Z,29.75
2022-08-18T14:37:01.022Z,30.30
2022-08-18T14:39:28.446Z,30.55
2022-08-18T14:41:58.420Z,32.08
2022-08-18T14:44:31.755Z,31.50
2022-08-18T14:46:59.327Z,30.05
2022-08-18T14:49:29.071Z,30.00
2022-08-18T14:51:58.343Z,30.70
2022-08-18T14:54:28.425Z,30.42
2022-08-18T14:56:57.870Z,28.98
2022-08-18T14:59:25.157Z,32.30
2022-08-18T15:01:53.441Z,32.28
2022-08-18T15:04:21.502Z,30.33
2022-08-18T15:06:56.256Z,30.50
2022-08-18T15:09:27.335Z,30.42
2022-08-18T15:11:56.283Z,30.60
2022-08-18T15:14:32.976Z,28.58
2022-08-18T15:17:12.022Z,28.50
2022-08-18T15:20:00.381Z,26.85
2022-08-18T15:22:47.873Z,29.38
2022-08-18T15:25:34.151Z,28.17
2022-08-18T15:28:01.378Z,27.15
2022-08-18T15:30:28.757Z,28.70
2022-08-18T15:32:55.671Z,30.35
2022-08-18T15:35:22.717Z,28.20
2022-08-18T15:37:51.394Z,29.17
2022-08-18T15:40:30.613Z,27.02
2022-08-18T15:43:06.833Z,29.77
2022-08-18T15:45:56.134Z,29.10
2022-08-18T15:48:26.486Z,27.77
2022-08-18T15:50:53.727Z,29.45
2022-08-18T15:53:23.402Z,29.70
2022-08-18T15:55:50.489Z,27.42
2022-08-18T15:58:22.401Z,27.77
2022-08-18T16:00:50.582Z,32.95
2022-08-18T16:03:18.103Z,30.60
2022-08-18T16:05:51.622Z,28.23
2022-08-18T16:08:22.258Z,26.55
2022-08-18T16:10:49.065Z,27.73
2022-08-18T16:13:16.221Z,25.75
2022-08-18T16:15:46.779Z,26.85
2022-08-18T16:20:43.403Z,23.55
2022-08-18T16:23:12.308Z,26.45
2022-08-18T16:25:40.613Z,26.08
2022-08-18T16:28:08.151Z,23.95
2022-08-18T16:30:35.860Z,25.83
2022-08-18T16:33:04.712Z,25.48
2022-08-18T16:35:32.559Z,25.90
2022-08-18T16:38:08.540Z,26.77
2022-08-18T16:40:35.507Z,23.65
2022-08-18T16:43:02.417Z,26.75
2022-08-18T16:45:29.759Z,24.40
2022-08-18T16:47:59.746Z,25.73
2022-08-18T16:50:27.400Z,26.00
2022-08-18T16:52:54.960Z,25.42
2022-08-18T16:55:22.007Z,25.15
2022-08-18T16:58:07.912Z,26.73
2022-08-18T17:00:55.289Z,24.90
2022-08-18T17:03:42.812Z,26.02
2022-08-18T17:06:12.665Z,25.80
2022-08-18T17:08:41.083Z,26.60
2022-08-18T17:11:14.267Z,26.88
2022-08-18T17:13:42.796Z,26.25
2022-08-18T17:16:11.091Z,27.55
2022-08-18T17:18:38.641Z,26.40
2022-08-18T17:21:07.398Z,25.67
2022-08-18T17:23:34.638Z,26.38
2022-08-18T17:26:16.592Z,26.92
2022-08-18T17:28:52.707Z,26.17
2022-08-18T17:31:24.574Z,25.88
2022-08-18T17:33:54.769Z,25.40
2022-08-18T17:36:52.550Z,24.75
2022-08-18T17:39:25.590Z,24.23
2022-08-18T17:42:11.014Z,24.92
2022-08-18T17:44:52.134Z,24.63
2022-08-18T17:47:25.556Z,23.52
2022-08-18T17:50:27.329Z,25.35
2022-08-18T17:53:06.726Z,24.23
2022-08-18T17:55:44.124Z,23.98
2022-08-18T17:58:29.437Z,23.05
2022-08-18T18:00:59.434Z,23.27
2022-08-18T18:03:28.331Z,22.45
2022-08-18T18:06:18.235Z,24.65
2022-08-18T18:08:51.260Z,23.80
2022-08-18T18:11:32.443Z,22.92
2022-08-18T18:14:18.785Z,23.80
2022-08-18T18:17:17.389Z,26.30
2022-08-18T18:19:46.790Z,24.50
2022-08-18T18:22:16.308Z,25.60
2022-08-18T18:24:50.866Z,26.20
2022-08-18T18:27:23.895Z,22.85
2022-08-18T18:30:06.662Z,25.70
2022-08-18T18:32:59.384Z,24.02
2022-08-18T18:35:33.944Z,24.65
2022-08-18T18:38:26.082Z,22.80
2022-08-18T18:41:04.341Z,22.02
2022-08-18T18:43:41.904Z,22.40
2022-08-18T18:46:18.653Z,24.52
2022-08-18T18:49:13.627Z,22.33
2022-08-18T18:51:55.601Z,24.13
2022-08-18T18:54:38.485Z,21.20
2022-08-18T18:57:13.849Z,21.35
2022-08-18T18:59:49.339Z,22.45
2022-08-18T19:02:37.939Z,22.25
2022-08-18T19:05:27.912Z,20.42
2022-08-18T19:08:06.709Z,20.80
2022-08-18T19:10:46.673Z,20.75
2022-08-18T19:13:30.370Z,22.20
2022-08-18T19:16:24.293Z,18.45
2022-08-18T19:19:35.804Z,19.85
2022-08-18T19:22:30.596Z,19.33
2022-08-18T19:25:19.208Z,18.65
2022-08-18T19:27:49.751Z,19.27
2022-08-18T19:30:18.555Z,21.27
2022-08-18T19:32:54.944Z,20.00
2022-08-18T19:35:58.777Z,20.40
2022-08-18T19:38:36.688Z,21.05
2022-08-18T19:41:22.249Z,20.63
2022-08-18T19:44:07.489Z,21.70
2022-08-18T19:46:40.812Z,20.77
2022-08-18T19:49:19.666Z,21.02
2022-08-18T19:51:49.898Z,20.35
2022-08-18T19:55:01.803Z,21.45
2022-08-18T19:57:47.465Z,21.52
2022-08-18T20:00:29.571Z,20.83
2022-08-18T20:03:12.511Z,20.98
2022-08-18T20:06:33.676Z,21.10
2022-08-18T20:09:18.792Z,17.60
2022-08-18T20:12:06.852Z,18.75
2022-08-18T20:14:36.952Z,18.92
2022-08-18T20:17:09.908Z,18.48
2022-08-18T20:19:54.975Z,18.98
2022-08-18T20:22:24.525Z,18.45
2022-08-18T20:25:05.738Z,18.55
2022-08-18T20:27:41.555Z,17.33
2022-08-18T20:30:20.444Z,17.48
2022-08-18T20:33:11.543Z,16.98
2022-08-18T20:35:41.060Z,16.90
2022-08-18T20:38:35.149Z,17.27
2022-08-18T20:41:28.763Z,17.02
2022-08-18T20:44:29.935Z,20.17
2022-08-18T20:46:59.633Z,17.60
2022-08-18T20:50:00.594Z,18.23
2022-08-18T20:53:07.692Z,16.95
2022-08-18T20:55:54.097Z,17.63
2022-08-18T20:58:32.089Z,17.45
2022-08-18T21:01:00.218Z,18.33
2022-08-18T21:03:44.219Z,15.85
2022-08-18T21:06:14.976Z,17.00
2022-08-18T21:11:47.409Z,14.40
2022-08-18T21:14:29.736Z,15.02
2022-08-18T21:16:58.912Z,15.20
2022-08-18T21:19:30.025Z,15.48
2022-08-18T21:22:00.649Z,13.93
2022-08-18T21:24:31.599Z,14.55
2022-08-18T21:27:06.589Z,14.90
2022-08-18T21:29:47.370Z,13.65
2022-08-18T21:32:22.555Z,13.32
2022-08-18T21:34:52.275Z,12.63
2022-08-18T21:37:20.044Z,12.65
2022-08-18T21:39:59.379Z,12.10
2022-08-18T21:42:40.739Z,11.65
2022-08-18T21:45:20.262Z,12.98
2022-08-18T21:48:02.299Z,14.30
2022-08-18T21:50:33.374Z,14.63
2022-08-18T21:53:13.178Z,14.07
2022-08-18T21:55:46.776Z,13.98
2022-08-18T21:58:38.897Z,14.45
2022-08-18T22:01:20.795Z,12.43
2022-08-18T22:03:56.270Z,13.55
2022-08-18T22:06:40.382Z,12.82
2022-08-18T22:09:28.843Z,14.30
2022-08-18T22:12:38.074Z,14.55
2022-08-18T22:15:10.934Z,13.48
2022-08-18T22:18:05.307Z,13.25
2022-08-18T22:20:51.738Z,14.43
2022-08-18T22:23:53.950Z,15.52
2022-08-18T22:26:33.607Z,14.65
2022-08-18T22:29:32.572Z,13.93
2022-08-18T22:32:01.345Z,14.68
2022-08-18T22:34:34.353Z,14.45
2022-08-18T22:37:19.806Z,13.38
2022-08-18T22:40:10.436Z,12.77
2022-08-18T22:42:38.428Z,12.65
2022-08-18T22:45:08.997Z,12.15
2022-08-18T22:47:43.713Z,12.38
2022-08-18T22:50:16.197Z,12.63
2022-08-18T22:52:47.497Z,12.35
2022-08-18T22:55:21.763Z,12.65
2022-08-18T22:57:55.789Z,14.35
2022-08-18T23:00:25.304Z,11.32
2022-08-18T23:02:57.251Z,13.02
2022-08-18T23:05:24.731Z,13.35
2022-08-18T23:07:51.763Z,12.30
2022-08-18T23:10:19.131Z,13.30
2022-08-18T23:12:48.075Z,13.02
2022-08-18T23:15:16.995Z,12.68
2022-08-18T23:17:44.221Z,11.32
2022-08-18T23:20:18.202Z,12.32
2022-08-18T23:22:45.793Z,14.13
2022-08-18T23:25:16.216Z,14.40
2022-08-18T23:27:43.348Z,13.50
2022-08-18T23:30:14.232Z,14.88
2022-08-18T23:35:10.471Z,12.50
2022-08-18T23:37:41.650Z,13.95
2022-08-18T23:40:16.775Z,13.73
2022-08-18T23:42:43.857Z,13.35
2022-08-18T23:45:11.095Z,13.52
2022-08-18T23:47:37.898Z,13.57
2022-08-18T23:50:06.734Z,13.13
2022-08-18T23:52:33.561Z,13.40
2022-08-18T23:55:05.099Z,14.32
2022-08-18T23:57:31.956Z,14.50
